Flight Track Log - Related Links

Times and Time Zones

All times are in EDT time to prevent confusion due to time zone crossing. See the SWA864 flight status page for this flight to view local times or setup timezone preferences in your user account.

Time Position Orientation Groundspeed Altitude Reporting Facility
EDT Latitude Longitude Course Direction KTS MPH feet Rate Location/Type
Sat 09:26:15 AM 26.0750 -80.1297 81° East 177 204 900  Level Miami Center
Sat 09:26:52 AM 26.0800 -80.0953 81° East 191 220 2,300 2,571 Climbing Miami Center
Sat 09:28:42 AM 26.1603 -80.0533 25° Northeast 253 291 7,200 2,259 Climbing Miami Center
Sat 09:29:42 AM 26.2197 -80.1128 318° Northwest 253 291 8,700 1,850 Climbing Miami Center
Sat 09:30:42 AM 26.2322 -80.2036 279° West 259 298 10,900 2,420 Climbing Miami Center
Sat 09:31:41 AM 26.2528 -80.3106 282° West 300 345 13,500 2,950 Climbing Miami Center
Sat 09:32:42 AM 26.2714 -80.4061 282° West 352 405 16,800 2,700 Climbing Miami Center
Sat 09:33:41 AM 26.3569 -80.4944 317° Northwest 357 411 18,900 2,067 Climbing Miami Center
Sat 09:34:41 AM 26.4322 -80.5642 320° Northwest 380 437 20,900 2,033 Climbing Miami Center
Sat 09:35:42 AM 26.5281 -80.6553 320° Northwest 397 457 23,000 1,850 Climbing Miami Center
Sat 09:36:41 AM 26.6117 -80.7322 321° Northwest 422 486 24,600 1,613 Climbing Miami Center
Sat 09:37:41 AM 26.7056 -80.8167 321° Northwest 435 501 26,200 1,488 Climbing Miami Center
Sat 09:38:42 AM 26.8053 -80.9108 320° Northwest 451 519 27,600 1,438 Climbing Miami Center
Sat 09:39:42 AM 26.9050 -81.0028 321° Northwest 456 525 29,100 1,850 Climbing Miami Center
Sat 09:40:42 AM 27.0128 -81.1022 321° Northwest 462 532 31,300 1,850 Climbing Miami Center
Sat 09:41:42 AM 27.1122 -81.1944 320° Northwest 462 532 32,800 1,400 Climbing Miami Center
Sat 09:42:42 AM 27.2097 -81.2892 319° Northwest 467 537 34,100 1,412 Climbing Miami Center
Sat 09:43:41 AM 27.3011 -81.3722 321° Northwest 467 537 35,600 950 Climbing Miami Center
Sat 09:44:42 AM 27.4086 -81.4700 321° Northwest 467 537 36,000 127 Climbing Miami Center
Sat 09:46:50 AM 27.6036 -81.6539 320° Northwest 468 539 36,000  Level Jacksonville Center
Sat 09:47:50 AM 27.7025 -81.7419 322° Northwest 462 532 36,000  Level Jacksonville Center
Sat 09:48:50 AM 27.8014 -81.8344 320° Northwest 457 526 36,000  Level Jacksonville Center
Sat 09:49:50 AM 27.9064 -81.9369 319° Northwest 463 533 36,000  Level Jacksonville Center
Sat 09:50:50 AM 28.0053 -82.0300 320° Northwest 463 533 36,000  Level Jacksonville Center
Sat 09:51:50 AM 28.1039 -82.1186 322° Northwest 463 533 36,000  Level Jacksonville Center
Sat 09:52:50 AM 28.1817 -82.2286 309° West 452 520 36,000  Level Jacksonville Center
Sat 09:53:50 AM 28.2594 -82.3436 308° West 457 526 36,000  Level Jacksonville Center
Sat 09:54:50 AM 28.3369 -82.4539 309° West 457 526 36,000  Level Jacksonville Center
Sat 09:55:50 AM 28.4125 -82.5644 308° West 457 526 36,000  Level Jacksonville Center
Sat 09:56:50 AM 28.4878 -82.6778 307° West 457 526 36,000  Level Jacksonville Center
Sat 09:57:50 AM 28.5653 -82.7908 308° West 457 526 36,000  Level Jacksonville Center
Sat 09:58:50 AM 28.6425 -82.9044 308° West 457 526 36,000  Level Jacksonville Center
Sat 09:59:50 AM 28.7175 -83.0133 308° West 457 526 36,000  Level Jacksonville Center
Sat 10:00:50 AM 28.7944 -83.1272 308° West 457 526 36,000  Level Jacksonville Center
Sat 10:01:50 AM 28.8694 -83.2411 307° West 457 526 36,000  Level Jacksonville Center
Sat 10:02:50 AM 28.9464 -83.3506 309° West 457 526 36,000  Level Jacksonville Center
Sat 10:03:50 AM 29.0231 -83.4647 308° West 457 526 36,000  Level Jacksonville Center
Sat 10:04:50 AM 29.0978 -83.5817 306° West 457 526 36,000  Level Jacksonville Center
Sat 10:05:50 AM 29.1742 -83.6939 308° West 457 526 36,000  Level Jacksonville Center
Sat 10:06:50 AM 29.2508 -83.8089 307° West 457 526 36,000  Level Jacksonville Center
Sat 10:07:50 AM 29.3250 -83.9217 307° West 457 526 36,000  Level Jacksonville Center
Sat 10:08:50 AM 29.4033 -84.0392 307° West 457 526 36,000  Level Jacksonville Center
Sat 10:09:50 AM 29.4794 -84.1522 308° West 457 526 36,000  Level Jacksonville Center
Sat 10:10:50 AM 29.5536 -84.2653 307° West 457 526 36,000  Level Jacksonville Center
Sat 10:11:50 AM 29.6272 -84.3811 306° West 457 526 36,000  Level Jacksonville Center
Sat 10:12:50 AM 29.7031 -84.4969 307° West 457 526 36,000  Level Jacksonville Center
Sat 10:13:50 AM 29.7789 -84.6106 308° West 457 526 36,000  Level Jacksonville Center
Sat 10:14:50 AM 29.8544 -84.7269 307° West 457 526 36,000  Level Jacksonville Center
Sat 10:15:50 AM 29.9322 -84.8411 308° West 457 526 36,000  Level Jacksonville Center
Sat 10:16:50 AM 30.0056 -84.9578 306° West 457 526 36,000  Level Jacksonville Center
Sat 10:17:50 AM 30.0808 -85.0769 306° West 457 526 36,000  Level Jacksonville Center
Sat 10:18:50 AM 30.1581 -85.1917 308° West 457 526 36,000 400 Level Jacksonville Center
Sat 10:19:50 AM 30.2272 -85.2967 307° West 457 526 36,800 900 Climbing Jacksonville Center
Sat 10:20:50 AM 30.3000 -85.4139 306° West 457 526 37,800 600 Climbing Jacksonville Center
Sat 10:21:50 AM 30.3769 -85.5339 307° West 457 526 38,000 100 Climbing Jacksonville Center
Sat 10:22:50 AM 30.4517 -85.6539 306° West 457 526 38,000  Level Jacksonville Center
Sat 10:23:50 AM 30.5264 -85.7719 306° West 457 526 38,000  Level Jacksonville Center
Sat 10:24:50 AM 30.6008 -85.8900 306° West 457 526 38,000  Level Jacksonville Center
Sat 10:25:50 AM 30.6772 -86.0083 307° West 457 526 38,000  Level Jacksonville Center
Sat 10:26:50 AM 30.7514 -86.1292 306° West 457 526 38,000  Level Jacksonville Center
Sat 10:27:50 AM 30.8278 -86.2456 307° West 457 526 38,000  Level Jacksonville Center
Sat 10:28:50 AM 30.8997 -86.3692 304° West 457 526 38,000  Level Jacksonville Center
Sat 10:29:50 AM 30.9758 -86.4858 307° West 457 526 38,000  Level Jacksonville Center
Sat 10:30:50 AM 31.0475 -86.6072 305° West 457 526 38,000  Level Jacksonville Center
Sat 10:33:07 AM 31.2194 -86.8747 307° West 475 547 38,000  Level Atlanta Center
Sat 10:34:07 AM 31.2939 -86.9936 306° West 462 532 38,000  Level Atlanta Center
Sat 10:35:07 AM 31.3661 -87.1153 305° West 457 526 38,000  Level Atlanta Center
Sat 10:36:07 AM 31.4403 -87.2369 306° West 457 526 38,000  Level Atlanta Center
Sat 10:37:07 AM 31.5142 -87.3589 305° West 457 526 38,000  Level Atlanta Center
Sat 10:38:07 AM 31.5881 -87.4786 306° West 457 526 38,000  Level Atlanta Center
Sat 10:39:07 AM 31.6597 -87.6008 305° West 457 526 38,000  Level Atlanta Center
Sat 10:40:07 AM 31.7336 -87.7186 306° West 457 526 38,000  Level Atlanta Center
Sat 10:42:26 AM 31.9067 -88.0131 305° West 465 535 38,000  Level Memphis Center
Sat 10:43:26 AM 31.9733 -88.1239 305° West 460 529 38,000  Level Memphis Center
Sat 10:44:26 AM 32.0528 -88.2519 306° West 460 529 38,000  Level Memphis Center
Sat 10:45:26 AM 32.1214 -88.3656 306° West 448 516 38,000  Level Memphis Center
Sat 10:46:26 AM 32.1881 -88.4819 304° West 437 503 38,000  Level Memphis Center
Sat 10:47:26 AM 32.2567 -88.6008 304° West 437 503 38,000  Level Memphis Center
Sat 10:48:26 AM 32.3250 -88.7150 305° West 437 503 38,000  Level Memphis Center
Sat 10:49:26 AM 32.3911 -88.8319 304° West 437 503 38,000  Level Memphis Center
Sat 10:50:26 AM 32.4592 -88.9467 305° West 432 497 38,000  Level Memphis Center
Sat 10:51:26 AM 32.5253 -89.0614 304° West 432 497 38,000  Level Memphis Center
Sat 10:52:26 AM 32.5911 -89.1739 305° West 432 497 38,000  Level Memphis Center
Sat 10:53:26 AM 32.6569 -89.2889 304° West 427 491 38,000  Level Memphis Center
Sat 10:54:26 AM 32.7203 -89.3992 304° West 427 491 38,000  Level Memphis Center
Sat 10:55:26 AM 32.7858 -89.5097 305° West 422 486 38,000  Level Memphis Center
Sat 10:56:26 AM 32.8408 -89.6081 304° West 412 474 38,000  Level Memphis Center
Sat 10:57:26 AM 32.9061 -89.7164 306° West 412 474 38,000  Level Memphis Center
Sat 10:58:26 AM 32.9672 -89.8322 302° West 412 474 38,000  Level Memphis Center
Sat 10:59:26 AM 33.0408 -89.9583 305° West 412 474 38,000  Level Memphis Center
Sat 11:00:26 AM 33.1078 -90.0744 305° West 417 480 38,000  Level Memphis Center
Sat 11:01:26 AM 33.1686 -90.1861 303° West 417 480 38,000  Level Memphis Center
Sat 11:02:26 AM 33.2314 -90.2975 304° West 417 480 38,000  Level Memphis Center
Sat 11:03:26 AM 33.2961 -90.4144 304° West 417 480 38,000  Level Memphis Center
Sat 11:04:26 AM 33.3586 -90.5289 303° West 417 480 38,000  Level Memphis Center
Sat 11:05:26 AM 33.4231 -90.6411 305° West 417 480 38,000  Level Memphis Center
Sat 11:06:26 AM 33.4897 -90.7608 304° West 422 486 38,000  Level Memphis Center
Sat 11:07:26 AM 33.5539 -90.8781 303° West 422 486 38,000  Level Memphis Center
Sat 11:08:26 AM 33.6222 -90.9983 304° West 422 486 38,000  Level Memphis Center
Sat 11:09:26 AM 33.6842 -91.1161 302° West 422 486 38,000  Level Memphis Center
Sat 11:10:26 AM 33.7522 -91.2342 305° West 428 493 38,000  Level Memphis Center
Sat 11:11:26 AM 33.8181 -91.3547 303° West 428 493 38,000  Level Memphis Center
Sat 11:12:26 AM 33.8778 -91.4656 303° West 438 504 38,000  Level Memphis Center
Sat 11:13:26 AM 33.9497 -91.5942 304° West 433 498 38,000  Level Memphis Center
Sat 11:14:26 AM 34.0131 -91.7153 302° West 433 498 38,000  Level Memphis Center
Sat 11:15:26 AM 34.0683 -91.8089 306° West 433 498 38,000  Level Memphis Center
Sat 11:16:26 AM 34.1417 -91.9483 302° West 428 493 38,000  Level Memphis Center
Sat 11:17:26 AM 34.2069 -92.0675 304° West 423 487 38,000  Level Memphis Center
Sat 11:18:26 AM 34.2719 -92.1919 302° West 423 487 38,000  Level Memphis Center
Sat 11:19:26 AM 34.3347 -92.3142 302° West 428 493 38,000  Level Memphis Center
Sat 11:20:26 AM 34.4017 -92.4339 304° West 428 493 38,000  Level Memphis Center
Sat 11:21:26 AM 34.4664 -92.5589 302° West 436 502 38,000  Level Memphis Center
Sat 11:22:26 AM 34.5308 -92.6842 302° West 436 502 38,000  Level Memphis Center
Sat 11:23:26 AM 34.5975 -92.8069 303° West 436 502 38,000  Level Memphis Center
Sat 11:24:26 AM 34.6617 -92.9325 302° West 436 502 38,000  Level Memphis Center
Sat 11:25:26 AM 34.7278 -93.0608 302° West 436 502 38,000  Level Memphis Center
Sat 11:26:26 AM 34.7819 -93.1636 303° West 442 509 38,000  Level Memphis Center
Sat 11:27:26 AM 34.8536 -93.3053 302° West 442 509 38,000  Level Memphis Center
Sat 11:28:26 AM 34.9236 -93.4369 303° West 447 514 38,000  Level Memphis Center
Sat 11:29:26 AM 34.9892 -93.5661 302° West 452 520 38,000  Level Memphis Center
Sat 11:30:26 AM 35.0544 -93.6953 302° West 464 534 38,000  Level Memphis Center
Sat 11:31:26 AM 35.1200 -93.8247 302° West 454 522 38,000  Level Memphis Center
Sat 11:32:26 AM 35.1872 -93.9547 302° West 454 522 38,000  Level Memphis Center
Sat 11:33:26 AM 35.2561 -94.0872 303° West 454 522 38,000  Level Memphis Center
Sat 11:34:26 AM 35.3211 -94.2175 301° West 459 528 38,000  Level Memphis Center
Sat 11:35:26 AM 35.3878 -94.3528 301° West 459 528 38,000  Level Memphis Center
Sat 11:36:26 AM 35.4522 -94.4861 301° West 459 528 38,000  Level Memphis Center
Sat 11:37:26 AM 35.5189 -94.6142 303° West 459 528 38,000  Level Memphis Center
Sat 11:38:26 AM 35.5889 -94.7583 301° West 459 528 38,000  Level Memphis Center
Sat 11:39:36 AM 35.6658 -94.9058 303° West 448 516 38,000  Level Kansas City Center
Sat 11:40:38 AM 35.7297 -95.0381 301° West 448 516 38,000  Level Kansas City Center
Sat 11:41:40 AM 35.7961 -95.1644 303° West 439 505 38,000  Level Kansas City Center
Sat 11:42:42 AM 35.8597 -95.2956 301° West 441 507 38,000  Level Kansas City Center
Sat 11:43:44 AM 35.9228 -95.4275 301° West 442 509 38,000  Level Kansas City Center
Sat 11:44:46 AM 35.9858 -95.5575 301° West 440 506 38,000  Level Kansas City Center
Sat 11:45:48 AM 36.0503 -95.6900 301° West 443 510 38,000  Level Kansas City Center
Sat 11:46:50 AM 36.1278 -95.8511 301° West 448 516 38,000  Level Kansas City Center
Sat 11:47:53 AM 36.1900 -95.9889 299° West 453 521 38,000  Level Kansas City Center
Sat 11:48:55 AM 36.2467 -96.1297 297° West 455 524 38,000  Level Kansas City Center
Sat 11:49:57 AM 36.3028 -96.2717 296° West 456 525 38,000  Level Kansas City Center
Sat 11:50:59 AM 36.3592 -96.4133 296° West 457 526 38,000  Level Kansas City Center
Sat 11:52:01 AM 36.4158 -96.5544 297° West 456 525 38,000  Level Kansas City Center
Sat 11:53:03 AM 36.4714 -96.6956 296° West 453 521 38,000  Level Kansas City Center
Sat 11:54:05 AM 36.5303 -96.8478 296° West 453 521 38,000  Level Kansas City Center
Sat 11:55:07 AM 36.5928 -97.0058 296° West 453 521 38,000  Level Kansas City Center
Sat 11:56:09 AM 36.6383 -97.1275 295° West 451 519 38,000  Level Kansas City Center
Sat 11:57:11 AM 36.7042 -97.2953 296° West 451 519 38,000  Level Kansas City Center
Sat 11:58:13 AM 36.7564 -97.4339 295° West 452 520 38,000  Level Kansas City Center
Sat 11:59:15 AM 36.8086 -97.5803 294° West 456 525 38,000  Level Kansas City Center
Sat 12:00:17 PM 36.8628 -97.7242 295° West 458 527 38,000  Level Kansas City Center
Sat 12:01:19 PM 36.9175 -97.8622 296° West 451 519 38,000  Level Kansas City Center
Sat 12:02:21 PM 36.9717 -98.0056 295° West 452 520 38,000  Level Kansas City Center
Sat 12:03:23 PM 37.0367 -98.1792 295° West 456 525 38,000  Level Kansas City Center
Sat 12:04:25 PM 37.0911 -98.3253 295° West 460 529 38,000  Level Kansas City Center
Sat 12:05:27 PM 37.1450 -98.4703 295° West 460 529 38,000  Level Kansas City Center
Sat 12:06:29 PM 37.1981 -98.6147 295° West 458 527 38,000  Level Kansas City Center
Sat 12:07:31 PM 37.2503 -98.7564 295° West 451 519 38,000  Level Kansas City Center
Sat 12:08:33 PM 37.3025 -98.8992 295° West 450 518 38,000 -145 Level Kansas City Center
Sat 12:09:35 PM 37.3539 -99.0422 294° West 447 514 37,700 -726 Descending Kansas City Center
Sat 12:10:37 PM 37.4183 -99.2167 295° West 455 524 36,500 -823 Descending Kansas City Center
Sat 12:11:39 PM 37.4711 -99.3642 294° West 460 529 36,000 -242 Descending Kansas City Center
Sat 12:12:41 PM 37.5208 -99.5058 294° West 452 520 36,000  Level Kansas City Center
Sat 12:13:43 PM 37.5775 -99.6664 294° West 450 518 36,000  Level Kansas City Center
Sat 12:14:45 PM 37.6272 -99.8042 295° West 451 519 36,000  Level Kansas City Center
Sat 12:15:47 PM 37.6847 -99.9647 294° West 451 519 36,000  Level Kansas City Center
Sat 12:16:49 PM 37.7333 -100.1036 294° West 452 520 36,000  Level Kansas City Center
Sat 12:17:51 PM 37.7892 -100.2633 294° West 448 516 36,000  Level Kansas City Center
Sat 12:18:53 PM 37.8375 -100.4019 294° West 451 519 36,000  Level Kansas City Center
Sat 12:19:55 PM 37.8933 -100.5619 294° West 449 517 36,000  Level Kansas City Center
Sat 12:20:57 PM 37.9400 -100.6989 293° West 448 516 36,000  Level Kansas City Center
Sat 12:21:59 PM 37.9939 -100.8575 293° West 444 511 36,000  Level Kansas City Center
Sat 12:23:02 PM 38.0439 -100.9911 295° West 442 509 36,000  Level Kansas City Center
Sat 12:24:04 PM 38.1164 -101.1400 302° West 446 513 36,000  Level Kansas City Center
Sat 12:25:06 PM 38.1764 -101.2681 301° West 443 510 36,000  Level Kansas City Center
Sat 12:26:08 PM 38.2472 -101.4192 301° West 444 511 36,000  Level Kansas City Center
Sat 12:27:10 PM 38.3081 -101.5481 301° West 444 511 36,000  Level Kansas City Center
Sat 12:28:12 PM 38.3786 -101.7011 300° West 447 514 36,000  Level Kansas City Center
Sat 12:29:14 PM 38.4394 -101.8317 301° West 447 514 36,000 -432 Level Kansas City Center
Sat 12:30:17 PM 38.5128 -101.9833 302° West 448 516 35,100 -788 Descending Denver Center
Sat 12:31:31 PM 38.5744 -102.1178 300° West 456 525 34,200 -926 Descending Denver Center
Sat 12:32:33 PM 38.6561 -102.2975 300° West 461 531 33,000 -1,016 Descending Denver Center
Sat 12:33:35 PM 38.7186 -102.4336 301° West 463 533 32,100 -882 Descending Denver Center
Sat 12:34:49 PM 38.7919 -102.5933 301° West 466 536 31,000 -920 Descending Denver Center
Sat 12:35:52 PM 38.8708 -102.7678 300° West 457 526 30,000 -480 Descending Denver Center
Sat 12:36:54 PM 38.9339 -102.9072 300° West 452 520 30,000  Level Denver Center
Sat 12:37:56 PM 38.9983 -103.0517 300° West 465 535 30,000  Level Denver Center
Sat 12:38:58 PM 39.0650 -103.1967 301° West 472 543 30,000 -290 Level Denver Center
Sat 12:40:00 PM 39.1294 -103.3439 299° West 474 545 29,400 -1,694 Descending Denver Center
Sat 12:41:02 PM 39.2056 -103.5169 300° West 464 534 26,500 -2,565 Descending Denver Center
Sat 12:42:04 PM 39.2681 -103.6564 300° West 452 520 24,100 -2,274 Descending Denver Center
Sat 12:43:06 PM 39.3264 -103.7881 300° West 429 494 21,800 -1,403 Descending Denver Center
Sat 12:44:08 PM 39.3831 -103.9075 302° West 395 455 21,200 -968 Descending Denver Center
Sat 12:45:10 PM 39.4425 -104.0194 305° West 355 409 19,800 -1,355 Descending Denver Center
Sat 12:46:12 PM 39.4933 -104.0972 310° West 338 389 18,400 -1,355 Descending Denver Center
Sat 12:47:14 PM 39.5597 -104.2125 307° West 324 373 17,000 -871 Descending Denver Center
Sat 12:48:16 PM 39.6200 -104.3111 308° West 326 375 16,600 -919 Descending Denver Center
Sat 12:49:18 PM 39.6722 -104.4008 307° West 313 360 15,100 -1,500 Descending Denver Center
Sat 12:50:20 PM 39.7303 -104.4947 309° West 310 357 13,500 -1,452 Descending Denver Center
Sat 12:51:22 PM 39.8078 -104.5219 345° North 306 352 12,100 -1,113 Descending Denver Center
Sat 12:52:24 PM 39.8950 -104.5219 360° North 295 339 11,200 -532 Descending Denver Center
Sat 12:53:26 PM 39.9658 -104.5208 North 259 298 11,000 -576 Descending Denver Center
Sat 12:54:29 PM 40.0133 -104.5581 329° Northwest 205 236 10,000 -1,161 Descending Denver Center
Sat 12:55:30 PM 40.0172 -104.6114 275° West 194 223 8,600 -1,597 Descending Denver Center
Sat 12:56:33 PM 39.9717 -104.6736 226° Southwest 184 212 6,700 -1,296 Descending Denver Center
Sat 12:57:35 PM 39.9272 -104.6872 193° South 164 189 5,900 -677 Descending Denver Center
Sat 12:58:37 PM 39.8817 -104.6869 180° South 158 182 5,300 -581 Descending Denver Center
Sat 01:00:00 PM 39.8617 -104.6732 North  Level Estimated
Sat 01:07:00 PM 39.8617 -104.6732 North  Level Estimated
Sat 01:08:00 PM 39.8617 -104.6732 North  Level Estimated
Sat 01:09:00 PM 39.8617 -104.6732 North  Level Estimated

Login

Don't have an account? Register now (free) for customized features, flight alerts, and more!